Time;durP1;ratioP1;P1;durP2;ratioP2;P2;SDS_P1;SDS_P2;PMS_P1;PMS_P2;Temp;Humidity;BMP_temperature;BMP_pressure;BME280_temperature;BME280_humidity;BME280_pressure;Samples;Min_cycle;Max_cycle;Signal;HPM_P1;HPM_P2
2021/05/21 00:01:28;;;;;;;0.30;0.30;;;;;;;12.28;61.63;99962.00;5071585;28;20173;-73
2021/05/21 00:03:53;;;;;;;0.40;0.40;;;;;;;12.25;61.90;99959.94;5071560;28;20171;-74
2021/05/21 00:06:18;;;;;;;0.30;0.30;;;;;;;12.29;62.62;99957.31;5071746;28;20175;-73
2021/05/21 00:08:44;;;;;;;0.30;0.30;;;;;;;12.25;62.11;99940.75;5071350;28;20466;-73
2021/05/21 00:11:09;;;;;;;0.30;0.30;;;;;;;12.31;61.22;99941.38;5071805;28;20254;-74
2021/05/21 00:13:34;;;;;;;0.40;0.40;;;;;;;12.25;61.42;99942.69;5069981;28;20174;-73
2021/05/21 00:16:00;;;;;;;0.40;0.40;;;;;;;12.31;60.84;99936.69;5071713;28;20612;-73
2021/05/21 00:18:25;;;;;;;0.27;0.27;;;;;;;12.36;61.99;99936.47;5070968;28;20185;-74
2021/05/21 00:20:51;;;;;;;0.23;0.23;;;;;;;12.37;61.66;99920.84;5071210;28;20170;-73
2021/05/21 00:23:17;;;;;;;0.30;0.30;;;;;;;12.32;61.67;99924.59;5071297;28;20579;-73
2021/05/21 00:25:42;;;;;;;0.40;0.40;;;;;;;12.33;61.92;99925.41;5071262;28;20175;-73
2021/05/21 00:28:08;;;;;;;0.60;0.60;;;;;;;12.21;62.63;99913.25;5071045;28;20261;-73
2021/05/21 00:30:33;;;;;;;4.00;0.40;;;;;;;12.29;62.19;99919.75;5071094;28;20190;-71
2021/05/21 00:32:58;;;;;;;0.57;0.57;;;;;;;12.32;62.28;99901.88;5071283;28;20254;-72
2021/05/21 00:35:24;;;;;;;0.23;0.23;;;;;;;12.41;62.28;99905.31;5070905;28;20285;-72
2021/05/21 00:37:49;;;;;;;0.30;0.30;;;;;;;12.35;62.04;99904.75;5071057;28;20198;-71
2021/05/21 00:40:15;;;;;;;0.77;0.40;;;;;;;12.44;61.66;99908.22;5070931;28;20178;-72
2021/05/21 00:42:40;;;;;;;0.33;0.33;;;;;;;12.44;61.82;99901.91;5071109;28;20283;-72
2021/05/21 00:45:06;;;;;;;0.50;0.50;;;;;;;12.43;62.14;99897.56;5071078;28;20527;-72
2021/05/21 00:47:31;;;;;;;0.30;0.30;;;;;;;12.50;61.17;99898.63;5070949;28;20323;-72
2021/05/21 00:49:57;;;;;;;0.13;0.13;;;;;;;12.48;62.33;99889.97;5070761;28;20270;-72
2021/05/21 00:52:26;;;;;;;0.33;0.33;;;;;;;12.35;63.02;99877.34;5070689;28;20175;-72
2021/05/21 00:54:51;;;;;;;0.20;0.20;;;;;;;12.40;63.29;99870.84;5070426;28;20178;-72
2021/05/21 00:57:17;;;;;;;0.53;0.33;;;;;;;12.42;63.16;99872.09;5070485;28;20175;-72
2021/05/21 00:59:42;;;;;;;0.80;0.50;;;;;;;12.46;62.44;99859.34;5070316;28;20186;-72
2021/05/21 01:02:08;;;;;;;0.30;0.30;;;;;;;12.51;63.24;99853.66;5070354;28;20633;-72
2021/05/21 01:04:35;;;;;;;0.57;0.57;;;;;;;12.42;63.58;99852.94;5070325;28;20179;-72
2021/05/21 01:07:01;;;;;;;0.30;0.30;;;;;;;12.52;62.72;99851.72;5070399;28;20174;-72
2021/05/21 01:09:27;;;;;;;0.73;0.73;;;;;;;12.51;63.84;99842.69;5070256;28;20174;-72
2021/05/21 01:11:52;;;;;;;0.40;0.40;;;;;;;12.50;64.21;99843.03;5070351;28;20171;-73
2021/05/21 01:14:17;;;;;;;0.90;0.70;;;;;;;12.51;63.90;99834.47;5070300;28;20668;-72
2021/05/21 01:16:43;;;;;;;0.50;0.50;;;;;;;12.52;64.35;99830.59;5070084;28;20209;-72
2021/05/21 01:19:08;;;;;;;0.40;0.40;;;;;;;12.46;64.11;99823.75;5069707;28;20658;-72
2021/05/21 01:21:35;;;;;;;0.30;0.30;;;;;;;12.57;64.25;99817.81;5070184;28;20636;-72
2021/05/21 01:24:02;;;;;;;0.50;0.50;;;;;;;12.51;64.64;99819.97;5070326;28;20646;-72
2021/05/21 01:26:28;;;;;;;0.30;0.30;;;;;;;12.56;64.79;99813.47;5070159;28;20576;-72
2021/05/21 01:28:54;;;;;;;0.50;0.50;;;;;;;12.57;64.50;99804.09;5070030;28;20190;-73
2021/05/21 01:31:19;;;;;;;0.40;0.40;;;;;;;12.55;64.60;99798.97;5070387;28;20268;-72
2021/05/21 01:33:45;;;;;;;0.57;0.57;;;;;;;12.62;65.61;99795.69;5070154;28;20174;-72
2021/05/21 01:36:10;;;;;;;0.23;0.23;;;;;;;12.58;64.92;99790.06;5068687;28;20210;-73
2021/05/21 01:38:37;;;;;;;0.50;0.50;;;;;;;12.56;64.93;99784.13;5069915;28;20178;-73
2021/05/21 01:41:03;;;;;;;0.70;0.70;;;;;;;12.57;65.25;99784.91;5070088;28;20182;-72
2021/05/21 01:43:29;;;;;;;0.60;0.60;;;;;;;12.57;65.41;99776.69;5070068;28;20546;-72
2021/05/21 01:45:56;;;;;;;1.47;0.57;;;;;;;12.50;65.85;99767.13;5071349;28;20258;-73
2021/05/21 01:48:21;;;;;;;0.50;0.50;;;;;;;12.52;64.76;99773.06;5074076;28;20179;-73
2021/05/21 01:50:46;;;;;;;0.50;0.47;;;;;;;12.52;65.96;99766.78;5073907;28;20179;-72
2021/05/21 01:53:11;;;;;;;0.67;0.67;;;;;;;12.46;65.28;99751.72;5073948;28;20171;-73
2021/05/21 01:55:37;;;;;;;0.77;0.77;;;;;;;12.49;65.58;99754.56;5073739;28;20208;-73
2021/05/21 01:58:03;;;;;;;0.40;0.40;;;;;;;12.46;65.52;99746.22;5073715;28;20171;-73
2021/05/21 02:00:28;;;;;;;0.50;0.50;;;;;;;12.41;66.25;99749.16;5073567;28;20191;-72
2021/05/21 02:02:54;;;;;;;0.33;0.33;;;;;;;12.46;65.75;99743.50;5073692;28;20237;-73
2021/05/21 02:05:19;;;;;;;0.40;0.40;;;;;;;12.43;65.98;99736.72;5073706;28;20191;-73
2021/05/21 02:07:46;;;;;;;0.93;0.70;;;;;;;12.40;66.32;99737.41;5073439;28;20189;-73
2021/05/21 02:10:12;;;;;;;0.50;0.50;;;;;;;12.40;66.88;99729.19;5073588;28;20190;-73
2021/05/21 02:12:42;;;;;;;0.60;0.60;;;;;;;12.43;66.38;99719.50;5073548;28;20170;-74
2021/05/21 02:15:08;;;;;;;1.23;0.70;;;;;;;12.39;67.05;99719.38;5073357;28;20178;-73
2021/05/21 02:17:34;;;;;;;0.23;0.23;;;;;;;12.43;66.04;99716.75;5073424;28;20181;-73
2021/05/21 02:20:01;;;;;;;0.93;0.67;;;;;;;12.43;66.04;99708.53;5069975;28;20843;-73
2021/05/21 02:22:28;;;;;;;0.80;0.80;;;;;;;12.34;66.18;99703.19;5073088;28;20213;-72
2021/05/21 02:24:56;;;;;;;0.30;0.30;;;;;;;12.33;66.50;99696.09;5073356;28;20221;-73
2021/05/21 02:27:22;;;;;;;0.77;0.50;;;;;;;12.30;66.49;99702.28;5073261;28;20174;-73
2021/05/21 02:29:47;;;;;;;0.50;0.50;;;;;;;12.34;65.77;99684.00;5072929;28;20206;-72
2021/05/21 02:32:13;;;;;;;0.30;0.30;;;;;;;12.33;66.30;99681.59;5073193;28;20225;-73
2021/05/21 02:34:38;;;;;;;0.60;0.60;;;;;;;12.29;66.13;99672.47;5072949;28;20181;-73
2021/05/21 02:37:03;;;;;;;0.50;0.50;;;;;;;12.31;66.57;99670.19;5071873;28;20208;-73
2021/05/21 02:39:29;;;;;;;0.40;0.40;;;;;;;12.28;66.96;99676.34;5073141;28;20767;-73
2021/05/21 02:41:54;;;;;;;0.40;0.40;;;;;;;12.31;66.85;99681.94;5073527;28;20174;-73
2021/05/21 02:44:20;;;;;;;0.50;0.50;;;;;;;12.33;66.10;99670.66;5071590;28;20174;-72
2021/05/21 02:46:45;;;;;;;0.40;0.40;;;;;;;12.29;66.52;99659.56;5073026;28;20175;-72
2021/05/21 02:49:10;;;;;;;1.40;0.50;;;;;;;12.26;66.57;99654.78;5072911;28;20171;-73
2021/05/21 02:51:36;;;;;;;0.40;0.40;;;;;;;12.29;66.62;99651.34;5073363;28;20202;-73
2021/05/21 02:54:01;;;;;;;0.40;0.40;;;;;;;12.33;65.45;99644.06;5072920;28;20162;-73
2021/05/21 02:56:26;;;;;;;0.40;0.30;;;;;;;12.33;66.51;99649.53;5072855;28;20202;-74
2021/05/21 02:58:52;;;;;;;0.70;0.70;;;;;;;12.29;66.03;99634.91;5071167;28;20653;-73
2021/05/21 03:01:17;;;;;;;0.97;0.70;;;;;;;12.26;66.88;99632.88;5072680;28;20263;-73
2021/05/21 03:03:43;;;;;;;0.30;0.30;;;;;;;12.21;66.17;99630.34;5072517;28;20182;-72
2021/05/21 03:06:08;;;;;;;0.30;0.30;;;;;;;12.20;65.79;99629.56;5072522;28;20676;-73
2021/05/21 03:08:33;;;;;;;0.63;0.63;;;;;;;12.15;66.88;99624.31;5072703;28;20171;-72
2021/05/21 03:10:59;;;;;;;2.73;0.73;;;;;;;12.15;66.95;99626.22;5072416;28;20194;-73
2021/05/21 03:13:25;;;;;;;0.40;0.40;;;;;;;12.07;66.98;99608.00;5072240;28;20183;-72
2021/05/21 03:15:51;;;;;;;0.47;0.40;;;;;;;12.04;67.10;99604.00;5072208;28;20297;-72
2021/05/21 03:18:24;;;;;;;0.70;0.70;;;;;;;11.96;67.48;99599.41;5072065;28;20185;-73
2021/05/21 03:20:52;;;;;;;0.43;0.43;;;;;;;11.93;66.97;99602.84;5072387;28;20208;-72
2021/05/21 03:23:17;;;;;;;0.40;0.40;;;;;;;11.88;67.60;99589.41;5072249;28;20178;-73
2021/05/21 03:25:43;;;;;;;0.50;0.50;;;;;;;11.88;67.46;99594.88;5072220;28;20512;-73
2021/05/21 03:28:10;;;;;;;0.50;0.50;;;;;;;11.83;67.88;99587.66;5071880;28;20586;-72
2021/05/21 03:30:36;;;;;;;0.40;0.37;;;;;;;11.85;67.55;99587.31;5071960;28;20186;-72
2021/05/21 03:33:02;;;;;;;0.50;0.50;;;;;;;11.82;67.80;99577.06;5072014;28;20531;-72
2021/05/21 03:35:28;;;;;;;0.50;0.50;;;;;;;11.79;68.52;99580.47;5071824;28;20228;-73
2021/05/21 03:37:53;;;;;;;0.40;0.40;;;;;;;11.84;68.61;99569.31;5071698;28;20182;-73
2021/05/21 03:40:18;;;;;;;0.50;0.50;;;;;;;11.81;68.56;99576.25;5071764;28;20186;-72
2021/05/21 03:42:44;;;;;;;0.60;0.60;;;;;;;11.87;68.14;99574.91;5071645;28;20644;-72
2021/05/21 03:45:10;;;;;;;0.50;0.50;;;;;;;11.86;68.18;99572.50;5071558;28;20179;-73
2021/05/21 03:47:35;;;;;;;0.30;0.30;;;;;;;11.90;67.62;99567.94;5072087;28;20596;-73
2021/05/21 03:50:01;;;;;;;2.10;0.80;;;;;;;11.94;67.88;99557.13;5071476;28;20186;-72
2021/05/21 03:52:27;;;;;;;0.40;0.40;;;;;;;12.01;68.04;99565.56;5071523;28;20175;-73
2021/05/21 03:54:52;;;;;;;0.33;0.33;;;;;;;12.02;67.80;99556.22;5071467;28;20189;-73
2021/05/21 03:57:20;;;;;;;0.50;0.40;;;;;;;12.02;67.71;99550.75;5071464;28;20241;-72
2021/05/21 03:59:47;;;;;;;0.47;0.47;;;;;;;12.03;67.96;99544.13;5071040;28;20209;-72
2021/05/21 04:02:12;;;;;;;0.67;0.53;;;;;;;12.01;67.49;99549.13;5071548;28;20217;-73
2021/05/21 04:04:37;;;;;;;0.30;0.30;;;;;;;12.06;68.49;99546.97;5071645;28;20193;-73
2021/05/21 04:07:02;;;;;;;0.50;0.33;;;;;;;12.09;68.07;99543.53;5071504;28;20183;-73
2021/05/21 04:09:30;;;;;;;0.83;0.70;;;;;;;12.15;67.92;99535.88;5070775;28;20199;-73
2021/05/21 04:11:56;;;;;;;0.37;0.37;;;;;;;12.19;67.83;99536.81;5071509;28;20162;-73
2021/05/21 04:14:21;;;;;;;0.47;0.47;;;;;;;12.19;67.10;99536.81;5071674;28;20631;-73
2021/05/21 04:16:46;;;;;;;0.53;0.50;;;;;;;12.20;67.30;99539.19;5071202;28;20204;-72
2021/05/21 04:19:11;;;;;;;0.27;0.27;;;;;;;12.20;67.67;99532.91;5071546;28;20183;-73
2021/05/21 04:21:37;;;;;;;0.70;0.50;;;;;;;12.17;67.46;99533.63;5071216;28;20198;-72
2021/05/21 04:24:03;;;;;;;0.20;0.20;;;;;;;12.16;68.57;99527.34;5070924;28;20216;-73
2021/05/21 04:26:28;;;;;;;0.60;0.60;;;;;;;12.15;68.28;99522.19;5071106;28;20660;-73
2021/05/21 04:28:53;;;;;;;0.30;0.30;;;;;;;12.17;67.82;99519.91;5070831;28;20224;-72
2021/05/21 04:31:19;;;;;;;0.37;0.37;;;;;;;12.16;68.30;99515.59;5071177;28;20656;-72
2021/05/21 04:33:45;;;;;;;0.50;0.50;;;;;;;12.14;68.33;99518.66;5070899;28;20200;-73
2021/05/21 04:36:10;;;;;;;0.63;0.40;;;;;;;12.12;69.36;99511.91;5071121;28;20526;-72
2021/05/21 04:38:36;;;;;;;0.50;0.50;;;;;;;12.15;69.16;99508.50;5070807;28;20171;-72
2021/05/21 04:41:02;;;;;;;0.60;0.50;;;;;;;12.18;68.19;99503.13;5070707;28;20174;-73
2021/05/21 04:43:28;;;;;;;0.90;0.90;;;;;;;12.19;68.44;99514.91;5070810;28;20726;-72
2021/05/21 04:45:54;;;;;;;0.57;0.57;;;;;;;12.18;69.06;99507.81;5070545;28;20198;-73
2021/05/21 04:48:20;;;;;;;0.60;0.60;;;;;;;12.24;68.60;99508.38;5070376;28;20174;-72
2021/05/21 04:50:46;;;;;;;0.30;0.30;;;;;;;12.28;68.29;99501.84;5070962;28;20190;-73
2021/05/21 04:53:12;;;;;;;0.20;0.20;;;;;;;12.31;68.09;99503.13;5069250;28;20170;-73
2021/05/21 04:55:37;;;;;;;0.50;0.50;;;;;;;12.30;68.69;99498.78;5070472;28;20649;-73
2021/05/21 04:58:03;;;;;;;0.10;0.10;;;;;;;12.33;69.00;99495.34;5070265;28;20198;-73
2021/05/21 05:00:28;;;;;;;0.50;0.50;;;;;;;12.37;68.26;99490.78;5070752;28;20186;-72
2021/05/21 05:02:54;;;;;;;0.60;0.47;;;;;;;12.37;68.08;99486.09;5070327;28;20170;-73
2021/05/21 05:05:19;;;;;;;0.50;0.30;;;;;;;12.40;68.10;99484.59;5070583;28;20440;-72
2021/05/21 05:07:45;;;;;;;0.40;0.40;;;;;;;12.40;68.59;99488.13;5070292;28;20495;-73
2021/05/21 05:10:11;;;;;;;0.23;0.23;;;;;;;12.37;68.07;99480.59;5070350;28;20230;-72
2021/05/21 05:12:36;;;;;;;0.53;0.43;;;;;;;12.34;67.44;99475.84;5070269;28;20715;-72
2021/05/21 05:15:02;;;;;;;0.87;0.40;;;;;;;12.33;68.49;99478.91;5070216;28;20732;-73
2021/05/21 05:17:27;;;;;;;0.40;0.40;;;;;;;12.37;68.68;99480.59;5070169;28;20182;-73
2021/05/21 05:19:52;;;;;;;0.30;0.30;;;;;;;12.41;68.40;99473.28;5070036;28;20235;-73
2021/05/21 05:22:18;;;;;;;0.30;0.30;;;;;;;12.51;68.63;99463.78;5069727;28;20509;-72
2021/05/21 05:24:43;;;;;;;0.40;0.40;;;;;;;12.65;68.06;99466.13;5070242;28;20174;-72
2021/05/21 05:27:08;;;;;;;0.40;0.40;;;;;;;12.69;67.08;99461.53;5070147;28;20269;-72
2021/05/21 05:29:34;;;;;;;0.40;0.40;;;;;;;12.76;67.09;99459.81;5069935;28;20672;-72
2021/05/21 05:32:01;;;;;;;0.20;0.20;;;;;;;12.85;66.55;99450.59;5070035;28;20216;-73
2021/05/21 05:34:27;;;;;;;0.50;0.50;;;;;;;12.92;66.48;99457.09;5069997;28;20594;-73
2021/05/21 05:36:52;;;;;;;0.27;0.27;;;;;;;12.96;66.03;99448.97;5070154;28;20453;-72
2021/05/21 05:39:18;;;;;;;0.57;0.57;;;;;;;13.01;66.29;99440.47;5069758;28;20793;-72
2021/05/21 05:41:43;;;;;;;2.43;0.70;;;;;;;13.09;65.66;99440.31;5069953;28;20217;-72
2021/05/21 05:44:08;;;;;;;0.20;0.20;;;;;;;13.13;65.68;99443.13;5069871;28;20207;-72
2021/05/21 05:46:34;;;;;;;0.30;0.30;;;;;;;13.20;65.85;99442.56;5069939;28;20182;-72
2021/05/21 05:48:59;;;;;;;0.20;0.20;;;;;;;13.33;65.92;99444.06;5069765;28;20177;-73
2021/05/21 05:51:24;;;;;;;0.30;0.30;;;;;;;13.46;65.37;99442.03;5069960;28;20175;-73
2021/05/21 05:53:50;;;;;;;0.50;0.50;;;;;;;13.55;64.75;99437.94;5069832;28;20174;-73
2021/05/21 05:56:15;;;;;;;0.10;0.10;;;;;;;13.59;64.43;99436.06;5069585;28;20304;-72
2021/05/21 05:58:41;;;;;;;0.40;0.37;;;;;;;13.60;64.13;99443.19;5069460;28;20170;-73
2021/05/21 06:01:07;;;;;;;0.20;0.20;;;;;;;13.60;63.70;99434.94;5069728;28;20254;-73
2021/05/21 06:03:32;;;;;;;0.40;0.40;;;;;;;13.65;63.63;99429.16;5069799;28;20535;-72
2021/05/21 06:05:58;;;;;;;0.33;0.30;;;;;;;13.82;63.04;99432.69;5070064;28;20178;-73
2021/05/21 06:08:24;;;;;;;0.23;0.23;;;;;;;13.84;62.87;99422.13;5069525;28;20174;-73
2021/05/21 06:10:53;;;;;;;0.27;0.27;;;;;;;13.95;62.58;99431.41;5069763;28;20175;-73
2021/05/21 06:13:22;;;;;;;0.10;0.10;;;;;;;14.02;62.40;99419.78;5069677;28;20163;-74
2021/05/21 06:15:48;;;;;;;0.20;0.20;;;;;;;14.08;62.33;99418.34;5069691;28;20260;-72
2021/05/21 06:18:13;;;;;;;0.30;0.30;;;;;;;14.08;62.56;99423.84;5069645;28;20178;-72
2021/05/21 06:20:39;;;;;;;0.50;0.30;;;;;;;14.09;60.84;99422.69;5069525;28;20540;-72
2021/05/21 06:23:04;;;;;;;0.10;0.10;;;;;;;14.09;62.08;99425.44;5068355;28;20206;-73
2021/05/21 06:28:12;;;;;;;0.30;0.30;;;;;;;14.16;62.08;99409.88;5069348;28;20265;-73
2021/05/21 06:30:38;;;;;;;0.10;0.10;;;;;;;14.18;62.50;99415.84;5069561;28;20538;-72
2021/05/21 06:33:04;;;;;;;0.37;0.13;;;;;;;14.14;61.72;99403.16;5072001;28;20228;-72
2021/05/21 06:35:30;;;;;;;0.30;0.30;;;;;;;14.14;62.28;99403.94;5073019;28;20895;-71
2021/05/21 06:37:56;;;;;;;0.27;0.27;;;;;;;14.20;62.45;99402.53;5072936;28;20171;-73
2021/05/21 06:40:21;;;;;;;0.93;0.30;;;;;;;14.36;62.94;99407.94;5072854;28;20182;-73
2021/05/21 06:42:47;;;;;;;1.03;0.33;;;;;;;14.45;60.64;99400.28;5069402;28;20189;-72
2021/05/21 06:45:13;;;;;;;0.40;0.40;;;;;;;14.37;61.50;99395.00;5072527;28;20183;-72
2021/05/21 06:47:38;;;;;;;0.77;0.57;;;;;;;14.34;62.37;99391.03;5072674;28;20530;-72
2021/05/21 06:50:05;;;;;;;0.20;0.20;;;;;;;14.41;62.28;99390.38;5055337;28;20229;-72
2021/05/21 06:52:30;;;;;;;0.00;0.00;;;;;;;14.60;60.97;99382.13;5052668;28;20187;-72
2021/05/21 06:54:56;;;;;;;0.30;0.30;;;;;;;14.66;60.68;99377.94;5052938;28;20171;-72
2021/05/21 06:57:22;;;;;;;0.00;0.00;;;;;;;14.73;59.87;99372.53;5055552;28;20210;-72
2021/05/21 06:59:48;;;;;;;0.10;0.10;;;;;;;14.77;60.26;99375.38;5070382;28;20191;-73
2021/05/21 07:02:13;;;;;;;0.10;0.07;;;;;;;14.73;61.27;99372.53;5065323;28;20190;-72
2021/05/21 07:04:38;;;;;;;0.00;0.00;;;;;;;14.71;58.76;99374.06;5063726;28;20653;-73
2021/05/21 07:07:04;;;;;;;0.10;0.10;;;;;;;14.65;58.90;99362.59;5072914;28;20648;-73
2021/05/21 07:09:29;;;;;;;0.30;0.30;;;;;;;14.53;58.97;99368.25;5072751;28;20558;-72
2021/05/21 07:11:55;;;;;;;0.10;0.10;;;;;;;14.28;59.78;99365.78;5072356;28;20178;-73
2021/05/21 07:14:20;;;;;;;0.27;0.27;;;;;;;14.31;59.78;99358.75;5072304;28;20179;-73
2021/05/21 07:16:46;;;;;;;0.77;0.30;;;;;;;14.46;60.16;99357.91;5071356;28;20635;-73
2021/05/21 07:19:14;;;;;;;0.20;0.20;;;;;;;14.55;59.33;99355.72;5068972;28;20190;-74
2021/05/21 07:21:40;;;;;;;0.20;0.20;;;;;;;14.68;58.41;99348.13;5071899;28;20265;-73
2021/05/21 07:24:05;;;;;;;0.30;0.20;;;;;;;14.71;58.89;99350.13;5061496;28;20262;-74
2021/05/21 07:26:31;;;;;;;0.97;0.50;;;;;;;14.95;59.34;99353.69;5072121;28;20618;-73
2021/05/21 07:28:57;;;;;;;1.93;1.13;;;;;;;15.00;58.56;99345.13;5071585;28;20592;-72
2021/05/21 07:31:26;;;;;;;0.70;0.70;;;;;;;15.01;59.12;99341.19;5071981;28;20623;-73
2021/05/21 07:33:53;;;;;;;0.40;0.00;;;;;;;15.04;58.99;99340.47;5071743;28;20167;-72
2021/05/21 07:36:18;;;;;;;0.00;0.00;;;;;;;15.03;56.99;99342.41;5067897;28;20210;-72
2021/05/21 07:38:43;;;;;;;0.00;0.00;;;;;;;15.03;57.75;99339.66;5071292;28;20546;-73
2021/05/21 07:41:09;;;;;;;0.33;0.33;;;;;;;15.12;57.77;99333.91;5060228;28;20181;-73
2021/05/21 07:43:34;;;;;;;0.33;0.33;;;;;;;15.14;58.69;99331.59;5071185;28;20193;-73
2021/05/21 07:46:00;;;;;;;16.20;0.67;;;;;;;15.22;57.21;99335.25;5071693;28;20182;-73
2021/05/21 07:48:26;;;;;;;0.63;0.63;;;;;;;15.18;57.24;99324.19;5071432;28;20179;-73
2021/05/21 07:50:52;;;;;;;0.10;0.10;;;;;;;15.07;56.58;99326.00;5071627;28;20603;-73
2021/05/21 07:53:17;;;;;;;0.03;0.03;;;;;;;14.98;57.28;99333.69;5071470;28;20693;-73
2021/05/21 07:55:44;;;;;;;0.10;0.10;;;;;;;14.87;58.15;99326.03;5071352;28;20666;-73
2021/05/21 07:58:13;;;;;;;1.13;0.33;;;;;;;14.78;57.95;99319.22;5071272;28;20178;-73
2021/05/21 08:00:38;;;;;;;0.10;0.10;;;;;;;14.70;58.24;99325.75;5071340;28;20221;-73
2021/05/21 08:03:04;;;;;;;0.30;0.20;;;;;;;14.84;59.03;99313.03;5071377;28;20193;-73
2021/05/21 08:05:29;;;;;;;13.77;1.23;;;;;;;15.07;59.23;99320.50;5071318;28;20198;-74
2021/05/21 08:07:55;;;;;;;2.73;0.33;;;;;;;15.34;59.22;99321.28;5070949;28;20289;-73
2021/05/21 08:10:21;;;;;;;8.83;0.40;;;;;;;15.37;56.32;99306.78;5071608;28;20254;-74
2021/05/21 08:12:46;;;;;;;0.30;0.30;;;;;;;15.58;57.62;99300.78;5071209;28;20213;-73
2021/05/21 08:15:12;;;;;;;0.60;0.53;;;;;;;15.88;56.50;99307.09;5071066;28;20661;-73
2021/05/21 08:17:38;;;;;;;0.20;0.20;;;;;;;16.14;55.33;99302.69;5071093;28;20178;-73
2021/05/21 08:20:04;;;;;;;0.30;0.27;;;;;;;16.07;53.41;99292.38;5070921;28;20171;-72
2021/05/21 08:22:30;;;;;;;0.20;0.20;;;;;;;16.00;55.06;99293.09;5070868;28;20178;-73
2021/05/21 08:24:55;;;;;;;0.30;0.30;;;;;;;15.90;55.05;99292.94;5071080;28;20209;-72
2021/05/21 08:27:21;;;;;;;0.20;0.20;;;;;;;15.75;56.25;99291.97;5070966;28;20209;-73
2021/05/21 08:29:46;;;;;;;0.50;0.43;;;;;;;15.57;56.60;99285.44;5070532;28;20788;-73
2021/05/21 08:32:12;;;;;;;0.77;0.50;;;;;;;15.46;56.27;99291.56;5069096;28;20186;-73
2021/05/21 08:34:37;;;;;;;0.40;0.40;;;;;;;15.54;55.09;99292.47;5068335;28;20218;-72
2021/05/21 08:37:03;;;;;;;0.23;0.23;;;;;;;15.78;55.15;99283.00;5064833;28;20678;-73
2021/05/21 08:39:28;;;;;;;1.90;0.47;;;;;;;15.75;56.53;99286.47;5049320;28;20179;-72
2021/05/21 08:41:55;;;;;;;0.87;0.50;;;;;;;15.79;54.09;99283.78;5062570;28;20183;-73
2021/05/21 08:44:21;;;;;;;0.60;0.30;;;;;;;15.80;55.49;99283.41;5070945;28;20182;-73
2021/05/21 08:46:47;;;;;;;1.60;0.43;;;;;;;15.74;54.82;99273.88;5062794;28;20179;-73
2021/05/21 08:49:13;;;;;;;0.10;0.10;;;;;;;16.05;52.94;99289.97;5068785;28;20178;-73
2021/05/21 08:51:39;;;;;;;0.30;0.30;;;;;;;16.23;55.12;99276.41;5049520;28;20218;-73
2021/05/21 08:54:07;;;;;;;0.10;0.10;;;;;;;16.16;53.79;99275.53;5050993;28;20229;-74
2021/05/21 08:56:35;;;;;;;0.40;0.40;;;;;;;15.96;53.06;99272.97;5050119;28;20535;-73
2021/05/21 08:59:00;;;;;;;0.00;0.00;;;;;;;15.85;53.51;99283.06;5050988;28;20186;-73
2021/05/21 09:01:27;;;;;;;28.00;0.47;;;;;;;15.87;52.38;99274.41;5050792;28;20182;-73
2021/05/21 09:04:01;;;;;;;0.30;0.30;;;;;;;15.94;53.81;99272.56;5050869;28;20171;-73
2021/05/21 09:06:28;;;;;;;0.83;0.80;;;;;;;15.92;52.69;99274.13;5050879;28;20264;-73
2021/05/21 09:08:57;;;;;;;0.40;0.40;;;;;;;15.73;52.35;99269.53;5050773;28;20171;-73
2021/05/21 09:11:27;;;;;;;0.20;0.20;;;;;;;15.74;53.32;99263.66;5059450;28;20179;-73
2021/05/21 09:13:57;;;;;;;0.33;0.20;;;;;;;15.87;53.56;99255.16;5070638;28;20189;-72
2021/05/21 09:16:24;;;;;;;0.57;0.43;;;;;;;15.95;53.55;99259.56;5069367;28;20875;-73
2021/05/21 09:18:59;;;;;;;0.20;0.20;;;;;;;15.97;52.93;99260.00;5070534;28;20175;-73
2021/05/21 09:21:26;;;;;;;0.47;0.47;;;;;;;16.08;52.12;99249.09;5070704;28;20313;-73
2021/05/21 09:24:02;;;;;;;0.00;0.00;;;;;;;16.26;51.94;99250.06;5070683;28;20179;-74
2021/05/21 09:26:45;;;;;;;0.50;0.50;;;;;;;16.51;52.81;99244.78;5070754;28;20698;-72
2021/05/21 09:29:13;;;;;;;0.10;0.10;;;;;;;16.50;51.01;99254.25;5070483;28;20560;-73
2021/05/21 09:31:56;;;;;;;0.30;0.30;;;;;;;16.57;50.65;99249.56;5070532;28;20162;-73
2021/05/21 09:34:33;;;;;;;0.20;0.10;;;;;;;16.71;52.13;99250.88;5070420;28;20178;-73
2021/05/21 09:36:59;;;;;;;0.63;0.63;;;;;;;16.51;51.04;99240.06;5070010;28;20198;-73
2021/05/21 09:39:25;;;;;;;0.77;0.77;;;;;;;16.41;51.57;99237.22;5068899;28;20227;-73
2021/05/21 09:41:57;;;;;;;0.20;0.20;;;;;;;16.52;51.43;99225.09;5070254;28;20171;-73
2021/05/21 09:44:23;;;;;;;0.50;0.20;;;;;;;16.79;50.78;99228.50;5070338;28;20182;-72
2021/05/21 09:46:50;;;;;;;0.00;0.00;;;;;;;16.99;50.77;99223.50;5071037;28;20270;-72
2021/05/21 09:49:34;;;;;;;0.20;0.20;;;;;;;17.30;51.00;99224.09;5070910;28;20175;-73
2021/05/21 09:52:04;;;;;;;1.10;0.57;;;;;;;17.08;50.51;99240.53;5070140;28;20170;-72
2021/05/21 09:54:49;;;;;;;0.30;0.30;;;;;;;17.07;49.85;99233.44;5070416;28;20181;-73
2021/05/21 09:57:15;;;;;;;0.20;0.20;;;;;;;16.96;51.17;99229.81;5070526;28;20225;-73
2021/05/21 09:59:44;;;;;;;0.00;0.00;;;;;;;16.67;47.67;99226.03;5069942;28;20174;-73
2021/05/21 10:02:19;;;;;;;0.53;0.20;;;;;;;16.39;49.00;99231.28;5070214;28;20183;-73
2021/05/21 10:04:45;;;;;;;0.20;0.20;;;;;;;16.27;51.60;99224.09;5069110;28;20178;-73
2021/05/21 10:07:12;;;;;;;4.63;0.67;;;;;;;16.50;52.10;99221.94;5069089;28;20222;-73
2021/05/21 10:09:41;;;;;;;0.30;0.20;;;;;;;16.52;52.20;99227.06;5068488;28;20211;-75
2021/05/21 10:12:07;;;;;;;0.20;0.20;;;;;;;16.43;50.83;99221.06;5073808;28;20185;-73
2021/05/21 10:14:33;;;;;;;0.20;0.20;;;;;;;16.20;50.02;99221.25;5061519;28;20217;-75
2021/05/21 10:17:00;;;;;;;0.17;0.17;;;;;;;16.06;51.91;99228.22;5073855;28;20256;-74
2021/05/21 10:19:26;;;;;;;0.20;0.20;;;;;;;16.24;51.87;99230.38;5072454;28;20184;-73
2021/05/21 10:21:53;;;;;;;0.20;0.20;;;;;;;16.50;51.66;99221.16;5073943;28;20175;-73
2021/05/21 10:24:20;;;;;;;2.00;0.33;;;;;;;16.45;52.59;99229.75;5073788;28;20179;-73
2021/05/21 10:26:51;;;;;;;0.10;0.10;;;;;;;16.19;50.79;99236.19;5073646;28;20175;-73
2021/05/21 10:29:24;;;;;;;0.60;0.60;;;;;;;16.04;51.75;99235.25;5072778;28;20179;-72
2021/05/21 10:31:51;;;;;;;0.67;0.30;;;;;;;15.91;51.49;99237.50;5073364;28;20174;-74
2021/05/21 10:34:20;;;;;;;0.20;0.20;;;;;;;15.84;52.29;99229.16;5073508;28;20261;-72
2021/05/21 10:36:46;;;;;;;0.10;0.10;;;;;;;15.84;52.67;99231.91;5073554;28;20202;-73
2021/05/21 10:39:20;;;;;;;0.00;0.00;;;;;;;16.12;52.58;99230.63;5072949;28;20496;-73
2021/05/21 10:41:50;;;;;;;0.70;0.30;;;;;;;16.53;54.80;99229.44;5072170;28;20509;-73
2021/05/21 10:44:20;;;;;;;0.77;0.57;;;;;;;16.83;50.56;99223.81;5071724;28;20393;-73
2021/05/21 10:46:50;;;;;;;0.20;0.20;;;;;;;16.70;49.01;99228.03;5073519;28;20174;-73
2021/05/21 10:49:25;;;;;;;0.10;0.10;;;;;;;16.68;51.24;99230.38;5072861;28;20383;-73
2021/05/21 10:52:02;;;;;;;0.17;0.17;;;;;;;16.40;49.80;99233.66;5073022;28;20275;-73
2021/05/21 10:54:35;;;;;;;0.50;0.20;;;;;;;16.43;50.92;99232.09;5073060;28;20177;-73
2021/05/21 10:57:13;;;;;;;0.30;0.30;;;;;;;16.79;50.74;99224.97;5072925;28;20688;-73
2021/05/21 10:59:58;;;;;;;0.20;0.20;;;;;;;16.79;48.29;99216.69;5072650;28;20653;-72
2021/05/21 11:02:44;;;;;;;0.10;0.10;;;;;;;16.64;48.24;99235.84;5072857;28;20630;-72
2021/05/21 11:05:29;;;;;;;0.10;0.10;;;;;;;16.56;47.92;99223.16;5072811;28;20527;-73
2021/05/21 11:07:56;;;;;;;0.10;0.10;;;;;;;16.42;46.67;99231.31;5072615;28;20173;-72
2021/05/21 11:10:34;;;;;;;0.43;0.43;;;;;;;16.32;47.66;99223.72;5072751;28;20171;-72
2021/05/21 11:13:02;;;;;;;0.20;0.20;;;;;;;16.28;49.65;99220.16;5072809;28;20209;-73
2021/05/21 11:15:43;;;;;;;0.40;0.40;;;;;;;16.28;49.41;99229.22;5072602;28;20175;-73
2021/05/21 11:18:19;;;;;;;0.97;0.63;;;;;;;16.17;49.54;99210.97;5071903;28;20170;-73
2021/05/21 11:21:03;;;;;;;0.40;0.40;;;;;;;16.06;51.20;99222.72;5071160;28;20515;-73
2021/05/21 11:23:36;;;;;;;0.20;0.20;;;;;;;16.08;50.71;99225.09;5072693;28;20623;-74
2021/05/21 11:26:04;;;;;;;0.07;0.07;;;;;;;16.24;48.27;99220.13;5071317;28;20171;-72
2021/05/21 11:28:34;;;;;;;0.73;0.73;;;;;;;16.57;47.26;99222.00;5072283;28;20198;-73
2021/05/21 11:30:59;;;;;;;0.10;0.10;;;;;;;16.88;47.23;99206.09;5072709;28;20166;-73
2021/05/21 11:33:24;;;;;;;0.33;0.33;;;;;;;16.66;46.57;99213.41;5072192;28;20552;-73
2021/05/21 11:35:54;;;;;;;0.30;0.30;;;;;;;16.59;46.20;99214.13;5071796;28;20658;-73